createdAt,value
2018-05-10T00:02:18.251Z,18.75
2018-05-10T00:04:44.509Z,18.68
2018-05-10T00:07:10.778Z,18.62
2018-05-10T00:09:37.035Z,18.66
2018-05-10T00:12:03.271Z,18.66
2018-05-10T00:14:29.666Z,18.73
2018-05-10T00:16:55.914Z,18.78
2018-05-10T00:19:22.127Z,18.73
2018-05-10T00:21:48.370Z,18.67
2018-05-10T00:24:14.594Z,18.66
2018-05-10T00:26:41.946Z,18.68
2018-05-10T00:29:08.426Z,18.59
2018-05-10T00:31:34.845Z,18.75
2018-05-10T00:34:01.428Z,18.81
2018-05-10T00:36:28.014Z,18.84
2018-05-10T00:38:54.558Z,18.62
2018-05-10T00:41:21.133Z,18.47
2018-05-10T00:43:47.697Z,18.36
2018-05-10T00:46:14.206Z,18.16
2018-05-10T00:48:40.731Z,18.18
2018-05-10T00:51:07.278Z,18.10
2018-05-10T00:53:33.898Z,18.15
2018-05-10T00:56:00.447Z,18.20
2018-05-10T00:58:27.026Z,18.27
2018-05-10T01:00:53.598Z,18.25
2018-05-10T01:03:20.121Z,18.28
2018-05-10T01:05:46.705Z,18.31
2018-05-10T01:08:13.192Z,18.33
2018-05-10T01:10:39.796Z,18.30
2018-05-10T01:13:06.091Z,18.33
2018-05-10T01:15:32.335Z,18.33
2018-05-10T01:17:59.657Z,18.31
2018-05-10T01:20:26.084Z,18.28
2018-05-10T01:22:52.318Z,18.25
2018-05-10T01:25:18.627Z,18.25
2018-05-10T01:27:44.843Z,18.10
2018-05-10T01:30:11.880Z,18.03
2018-05-10T01:32:38.187Z,18.04
2018-05-10T01:35:16.563Z,18.01
2018-05-10T01:37:42.810Z,18.05
2018-05-10T01:40:09.038Z,17.96
2018-05-10T01:42:35.277Z,17.88
2018-05-10T01:45:01.535Z,17.82
2018-05-10T01:47:27.792Z,17.82
2018-05-10T01:49:54.030Z,17.73
2018-05-10T01:52:20.254Z,17.74
2018-05-10T01:54:46.507Z,17.79
2018-05-10T01:57:12.739Z,17.82
2018-05-10T01:59:38.997Z,17.78
2018-05-10T02:02:05.263Z,17.83
2018-05-10T02:04:31.523Z,17.85
2018-05-10T02:06:57.828Z,17.79
2018-05-10T02:09:24.178Z,17.54
2018-05-10T02:11:50.409Z,17.39
2018-05-10T02:14:16.638Z,17.48
2018-05-10T02:16:42.889Z,17.51
2018-05-10T02:19:09.122Z,17.53
2018-05-10T02:21:35.414Z,17.50
2018-05-10T02:24:01.642Z,17.53
2018-05-10T02:26:27.899Z,17.50
2018-05-10T02:28:54.131Z,17.37
2018-05-10T02:31:20.395Z,17.33
2018-05-10T02:33:46.620Z,17.30
2018-05-10T02:36:12.846Z,17.25
2018-05-10T02:38:39.118Z,17.03
2018-05-10T02:41:05.345Z,16.86
2018-05-10T02:43:31.610Z,16.96
2018-05-10T02:45:57.851Z,17.13
2018-05-10T02:48:24.110Z,17.27
2018-05-10T02:50:50.342Z,17.31
2018-05-10T02:53:16.626Z,17.36
2018-05-10T02:55:42.866Z,17.28
2018-05-10T02:58:09.103Z,17.11
2018-05-10T03:00:35.367Z,17.06
2018-05-10T03:03:01.596Z,17.05
2018-05-10T03:05:27.838Z,17.17
2018-05-10T03:07:54.058Z,17.31
2018-05-10T03:10:20.307Z,17.35
2018-05-10T03:12:46.542Z,17.37
2018-05-10T03:15:12.762Z,17.39
2018-05-10T03:17:39.050Z,17.43
2018-05-10T03:20:05.277Z,17.36
2018-05-10T03:22:31.542Z,17.37
2018-05-10T03:24:57.749Z,17.44
2018-05-10T03:27:23.987Z,17.47
2018-05-10T03:29:50.250Z,17.50
2018-05-10T03:32:16.510Z,17.52
2018-05-10T03:34:42.747Z,17.48
2018-05-10T03:37:08.991Z,17.45
2018-05-10T03:39:35.506Z,17.52
2018-05-10T03:42:01.774Z,17.41
2018-05-10T03:44:29.159Z,17.33
2018-05-10T03:46:55.660Z,17.29
2018-05-10T03:49:22.274Z,17.30
2018-05-10T03:51:48.787Z,17.29
2018-05-10T03:54:15.386Z,17.39
2018-05-10T03:56:41.899Z,17.45
2018-05-10T03:59:08.532Z,17.58
2018-05-10T04:01:35.123Z,17.67
2018-05-10T04:04:27.444Z,17.76
2018-05-10T04:07:06.134Z,17.84
2018-05-10T04:09:44.735Z,17.83
2018-05-10T04:12:11.269Z,17.86
2018-05-10T04:14:37.521Z,17.70
2018-05-10T04:17:04.899Z,17.67
2018-05-10T04:19:31.126Z,17.60
2018-05-10T04:21:57.381Z,17.51
2018-05-10T04:24:23.606Z,17.58
2018-05-10T04:26:49.826Z,17.65
2018-05-10T04:29:16.097Z,17.69
2018-05-10T04:31:42.327Z,17.73
2018-05-10T04:34:08.579Z,17.83
2018-05-10T04:36:34.798Z,17.92
2018-05-10T04:39:01.030Z,18.12
2018-05-10T04:41:27.254Z,18.15
2018-05-10T04:43:53.489Z,18.18
2018-05-10T04:46:19.710Z,18.25
2018-05-10T04:48:45.936Z,18.19
2018-05-10T04:51:12.186Z,18.39
2018-05-10T04:53:38.397Z,18.49
2018-05-10T04:56:04.643Z,18.49
2018-05-10T04:58:30.870Z,18.43
2018-05-10T05:00:57.132Z,18.31
2018-05-10T05:03:23.394Z,18.34
2018-05-10T05:05:49.630Z,18.31
2018-05-10T05:08:15.859Z,18.32
2018-05-10T05:10:42.106Z,18.45
2018-05-10T05:13:08.362Z,18.49
2018-05-10T05:15:34.591Z,18.58
2018-05-10T05:18:00.847Z,18.63
2018-05-10T05:20:27.167Z,18.72
2018-05-10T05:22:53.423Z,18.84
2018-05-10T05:25:19.663Z,18.97
2018-05-10T05:27:45.932Z,19.11
2018-05-10T05:30:12.171Z,19.20
2018-05-10T05:32:38.411Z,19.34
2018-05-10T05:35:04.665Z,19.60
2018-05-10T05:37:30.896Z,19.72
2018-05-10T05:39:57.149Z,19.92
2018-05-10T05:42:23.421Z,20.08
2018-05-10T05:44:49.718Z,20.13
2018-05-10T05:47:16.089Z,20.23
2018-05-10T05:49:42.427Z,20.31
2018-05-10T05:52:08.701Z,20.43
2018-05-10T05:54:34.934Z,20.54
2018-05-10T05:57:01.180Z,20.64
2018-05-10T05:59:27.446Z,20.85
2018-05-10T06:01:53.698Z,20.90
2018-05-10T06:04:19.926Z,20.99
2018-05-10T06:06:46.207Z,21.11
2018-05-10T06:09:12.463Z,21.22
2018-05-10T06:11:38.731Z,21.28
2018-05-10T06:14:04.960Z,21.26
2018-05-10T06:16:31.200Z,21.41
2018-05-10T06:18:57.458Z,21.62
2018-05-10T06:21:23.739Z,21.81
2018-05-10T06:23:49.986Z,21.97
2018-05-10T06:26:16.209Z,22.12
2018-05-10T06:28:42.466Z,22.17
2018-05-10T06:31:08.699Z,22.03
2018-05-10T06:33:34.961Z,22.20
2018-05-10T06:36:01.195Z,22.39
2018-05-10T06:38:27.424Z,22.36
2018-05-10T06:40:53.666Z,22.32
2018-05-10T06:43:19.890Z,22.30
2018-05-10T06:45:46.249Z,22.38
2018-05-10T06:48:12.492Z,22.51
2018-05-10T06:50:38.761Z,22.61
2018-05-10T06:53:05.015Z,22.99
2018-05-10T06:55:31.278Z,23.15
2018-05-10T06:57:57.539Z,23.07
2018-05-10T07:00:23.786Z,23.18
2018-05-10T07:02:50.051Z,23.53
2018-05-10T07:05:16.339Z,23.79
2018-05-10T07:07:42.628Z,23.99
2018-05-10T07:10:08.854Z,24.14
2018-05-10T07:12:35.175Z,24.10
2018-05-10T07:15:01.409Z,24.26
2018-05-10T07:17:27.685Z,24.47
2018-05-10T07:19:53.942Z,24.48
2018-05-10T07:22:20.183Z,24.66
2018-05-10T07:24:46.446Z,24.71
2018-05-10T07:27:12.680Z,24.83
2018-05-10T07:29:38.923Z,24.80
2018-05-10T07:32:05.154Z,24.92
2018-05-10T07:34:31.404Z,24.95
2018-05-10T07:36:57.621Z,25.11
2018-05-10T07:39:23.850Z,25.16
2018-05-10T07:41:50.094Z,25.04
2018-05-10T07:44:16.308Z,25.04
2018-05-10T07:46:42.550Z,25.15
2018-05-10T07:49:08.787Z,25.14
2018-05-10T07:51:35.020Z,25.35
2018-05-10T07:54:01.249Z,25.51
2018-05-10T07:56:27.504Z,25.63
2018-05-10T07:58:53.728Z,25.91
2018-05-10T08:01:19.961Z,26.28
2018-05-10T08:03:46.225Z,26.58
2018-05-10T08:06:12.446Z,26.79
2018-05-10T08:08:38.685Z,26.95
2018-05-10T08:11:04.907Z,27.04
2018-05-10T08:13:31.237Z,27.11
2018-05-10T08:15:57.474Z,27.06
2018-05-10T08:18:23.798Z,27.13
2018-05-10T08:20:50.006Z,27.34
2018-05-10T08:23:16.235Z,27.66
2018-05-10T08:25:42.788Z,27.98
2018-05-10T08:28:09.353Z,28.25
2018-05-10T08:30:35.839Z,28.52
2018-05-10T08:33:02.497Z,28.69
2018-05-10T08:35:29.088Z,28.96
2018-05-10T08:37:55.770Z,28.96
2018-05-10T08:40:22.380Z,29.08
2018-05-10T08:42:48.871Z,28.89
2018-05-10T08:45:15.551Z,28.70
2018-05-10T08:47:42.073Z,28.42
2018-05-10T08:50:08.635Z,28.08
2018-05-10T08:52:35.986Z,27.93
2018-05-10T08:55:02.868Z,27.97
2018-05-10T08:57:29.273Z,28.18
2018-05-10T08:59:55.711Z,28.72
2018-05-10T09:02:22.141Z,29.28
2018-05-10T09:04:55.548Z,29.48
2018-05-10T09:07:22.052Z,29.41
2018-05-10T09:09:48.472Z,28.95
2018-05-10T09:12:15.030Z,28.74
2018-05-10T09:14:41.566Z,28.85
2018-05-10T09:17:08.137Z,29.14
2018-05-10T09:19:34.419Z,29.24
2018-05-10T09:22:00.707Z,29.66
2018-05-10T09:24:27.234Z,30.11
2018-05-10T09:26:53.800Z,30.32
2018-05-10T09:29:20.173Z,30.60
2018-05-10T09:31:46.446Z,30.98
2018-05-10T09:34:12.651Z,31.39
2018-05-10T09:36:38.886Z,31.56
2018-05-10T09:39:05.122Z,31.25
2018-05-10T09:41:31.371Z,30.92
2018-05-10T09:43:57.654Z,30.77
2018-05-10T09:46:23.875Z,30.05
2018-05-10T09:48:50.265Z,29.51
2018-05-10T09:51:16.474Z,29.66
2018-05-10T09:53:42.709Z,30.18
2018-05-10T09:56:09.187Z,30.62
2018-05-10T09:58:35.502Z,31.30
2018-05-10T10:01:01.757Z,31.26
2018-05-10T10:03:29.000Z,31.72
2018-05-10T10:05:55.267Z,32.30
2018-05-10T10:08:21.492Z,32.36
2018-05-10T10:10:47.730Z,32.47
2018-05-10T10:13:13.954Z,32.93
2018-05-10T10:15:40.246Z,32.99
2018-05-10T10:18:06.460Z,33.28
2018-05-10T10:20:32.710Z,32.85
2018-05-10T10:22:58.942Z,32.75
2018-05-10T10:25:25.215Z,32.74
2018-05-10T10:27:51.484Z,32.96
2018-05-10T10:30:17.719Z,32.82
2018-05-10T10:32:43.986Z,32.93
2018-05-10T10:35:10.217Z,33.02
2018-05-10T10:37:36.486Z,33.21
2018-05-10T10:40:02.792Z,33.46
2018-05-10T10:42:29.012Z,32.97
2018-05-10T10:44:55.269Z,32.98
2018-05-10T10:47:21.494Z,32.93
2018-05-10T10:49:47.750Z,32.57
2018-05-10T10:52:14.174Z,32.18
2018-05-10T10:54:40.432Z,31.35
2018-05-10T10:57:06.787Z,31.55
2018-05-10T10:59:33.026Z,31.65
2018-05-10T11:01:59.342Z,31.80
2018-05-10T11:04:25.613Z,31.88
2018-05-10T11:06:51.875Z,31.37
2018-05-10T11:09:18.544Z,31.33
2018-05-10T11:11:45.132Z,31.23
2018-05-10T11:14:12.727Z,31.10
2018-05-10T11:16:39.360Z,31.44
2018-05-10T11:19:05.879Z,31.57
2018-05-10T11:21:32.474Z,31.39
2018-05-10T11:23:59.110Z,31.22
2018-05-10T11:26:25.646Z,30.71
2018-05-10T11:28:52.307Z,30.39
2018-05-10T11:31:18.847Z,30.68
2018-05-10T11:33:45.414Z,31.10
2018-05-10T11:36:12.917Z,31.48
2018-05-10T11:38:39.417Z,32.00
2018-05-10T11:41:06.085Z,31.78
2018-05-10T11:43:32.335Z,32.28
2018-05-10T11:45:58.587Z,32.31
2018-05-10T11:48:25.040Z,32.71
2018-05-10T11:50:53.925Z,32.99
2018-05-10T11:53:20.280Z,33.48
2018-05-10T11:55:47.507Z,33.81
2018-05-10T11:58:13.751Z,33.58
2018-05-10T12:00:40.035Z,33.25
2018-05-10T12:03:06.350Z,32.94
2018-05-10T12:05:32.563Z,32.90
2018-05-10T12:07:58.797Z,33.01
2018-05-10T12:10:25.102Z,33.42
2018-05-10T12:12:51.375Z,34.05
2018-05-10T12:15:17.852Z,34.24
2018-05-10T12:17:44.111Z,34.19
2018-05-10T12:20:10.343Z,34.55
2018-05-10T12:22:36.561Z,34.66
2018-05-10T12:25:02.833Z,35.05
2018-05-10T12:27:29.185Z,35.69
2018-05-10T12:29:55.422Z,35.86
2018-05-10T12:32:21.626Z,35.99
2018-05-10T12:34:47.898Z,36.87
2018-05-10T12:37:14.216Z,36.36
2018-05-10T12:39:40.650Z,36.59
2018-05-10T12:42:06.867Z,36.73
2018-05-10T12:44:33.094Z,36.91
2018-05-10T12:46:59.351Z,37.21
2018-05-10T12:49:25.685Z,37.92
2018-05-10T12:51:52.032Z,38.47
2018-05-10T12:54:18.288Z,39.21
2018-05-10T12:56:44.531Z,39.68
2018-05-10T12:59:10.905Z,39.89
2018-05-10T13:01:37.164Z,40.21
2018-05-10T13:04:03.682Z,39.97
2018-05-10T13:06:29.985Z,40.06
2018-05-10T13:08:56.320Z,40.29
2018-05-10T13:11:22.551Z,40.60
2018-05-10T13:13:48.805Z,40.48
2018-05-10T13:16:15.203Z,40.18
2018-05-10T13:18:41.382Z,39.44
2018-05-10T13:21:07.759Z,38.61
2018-05-10T13:23:34.123Z,38.19
2018-05-10T13:26:00.414Z,37.03
2018-05-10T13:28:26.691Z,35.36
2018-05-10T13:30:52.990Z,34.11
2018-05-10T13:33:19.300Z,33.02
2018-05-10T13:35:45.608Z,31.98
2018-05-10T13:38:11.917Z,30.96
2018-05-10T13:40:38.195Z,30.24
2018-05-10T13:43:04.427Z,29.22
2018-05-10T13:45:30.767Z,27.60
2018-05-10T13:47:56.996Z,26.76
2018-05-10T13:50:23.241Z,25.91
2018-05-10T13:52:49.470Z,25.21
2018-05-10T13:55:15.707Z,24.68
2018-05-10T13:57:42.023Z,24.50
2018-05-10T14:00:08.292Z,24.69
2018-05-10T14:02:34.619Z,24.79
2018-05-10T14:05:00.931Z,24.87
2018-05-10T14:07:27.310Z,24.90
2018-05-10T14:09:53.668Z,24.96
2018-05-10T14:12:19.971Z,25.15
2018-05-10T14:14:46.231Z,25.28
2018-05-10T14:17:12.459Z,25.26
2018-05-10T14:19:38.726Z,25.23
2018-05-10T14:22:05.149Z,24.89
2018-05-10T14:24:31.368Z,24.96
2018-05-10T14:26:57.667Z,25.27
2018-05-10T14:29:24.055Z,25.57
2018-05-10T14:31:50.358Z,26.22
2018-05-10T14:34:16.615Z,26.75
2018-05-10T14:36:42.934Z,26.50
2018-05-10T14:39:09.247Z,25.78
2018-05-10T14:41:35.734Z,25.43
2018-05-10T14:44:02.027Z,25.27
2018-05-10T14:46:28.465Z,25.46
2018-05-10T14:48:54.692Z,25.29
2018-05-10T14:51:21.290Z,25.19
2018-05-10T14:53:47.599Z,25.14
2018-05-10T14:56:13.898Z,25.19
2018-05-10T14:58:40.138Z,25.12
2018-05-10T15:01:06.406Z,25.04
2018-05-10T15:03:32.648Z,25.20
2018-05-10T15:05:58.890Z,25.37
2018-05-10T15:08:25.219Z,25.51
2018-05-10T15:10:51.495Z,25.50
2018-05-10T15:13:17.856Z,25.55
2018-05-10T15:15:44.170Z,25.53
2018-05-10T15:18:10.523Z,25.68
2018-05-10T15:20:36.805Z,25.72
2018-05-10T15:23:03.095Z,25.77
2018-05-10T15:25:29.909Z,25.93
2018-05-10T15:27:56.425Z,26.02
2018-05-10T15:30:22.730Z,26.04
2018-05-10T15:32:49.149Z,26.17
2018-05-10T15:35:15.400Z,26.20
2018-05-10T15:37:41.747Z,26.26
2018-05-10T15:40:07.990Z,26.28
2018-05-10T15:42:34.306Z,26.24
2018-05-10T15:45:00.658Z,26.29
2018-05-10T15:47:27.169Z,26.26
2018-05-10T15:49:53.731Z,26.24
2018-05-10T15:52:20.452Z,26.23
2018-05-10T15:54:47.077Z,26.12
2018-05-10T15:57:13.486Z,26.23
2018-05-10T15:59:39.975Z,26.27
2018-05-10T16:02:06.382Z,26.29
2018-05-10T16:04:32.874Z,26.42
2018-05-10T16:06:59.302Z,26.57
2018-05-10T16:09:26.009Z,26.60
2018-05-10T16:11:52.618Z,26.59
2018-05-10T16:14:19.037Z,26.61
2018-05-10T16:16:45.472Z,26.57
2018-05-10T16:19:11.912Z,26.42
2018-05-10T16:21:38.407Z,26.29
2018-05-10T16:24:05.014Z,26.21
2018-05-10T16:26:32.602Z,26.15
2018-05-10T16:28:59.175Z,26.09
2018-05-10T16:31:25.835Z,26.11
2018-05-10T16:33:52.125Z,26.00
2018-05-10T16:36:18.463Z,25.95
2018-05-10T16:38:44.775Z,25.86
2018-05-10T16:41:11.062Z,25.78
2018-05-10T16:43:37.385Z,25.61
2018-05-10T16:46:03.631Z,25.47
2018-05-10T16:51:02.682Z,25.29
2018-05-10T16:53:29.024Z,25.21
2018-05-10T16:55:55.240Z,25.15
2018-05-10T16:58:21.540Z,25.06
2018-05-10T17:00:47.839Z,25.06
2018-05-10T17:03:14.178Z,25.01
2018-05-10T17:05:40.512Z,24.95
2018-05-10T17:08:06.752Z,24.93
2018-05-10T17:10:33.295Z,24.93
2018-05-10T17:12:59.586Z,24.84
2018-05-10T17:15:25.838Z,24.79
2018-05-10T17:17:52.078Z,24.18
2018-05-10T17:20:18.292Z,23.62
2018-05-10T17:22:44.575Z,23.33
2018-05-10T17:25:10.814Z,22.81
2018-05-10T17:27:37.095Z,22.62
2018-05-10T17:30:03.380Z,22.34
2018-05-10T17:32:29.648Z,21.97
2018-05-10T17:34:55.879Z,21.95
2018-05-10T17:37:22.162Z,21.93
2018-05-10T17:39:48.411Z,21.78
2018-05-10T17:42:14.638Z,21.70
2018-05-10T17:44:40.869Z,21.52
2018-05-10T17:47:07.131Z,21.56
2018-05-10T17:49:33.394Z,21.50
2018-05-10T17:51:59.678Z,21.28
2018-05-10T17:54:25.951Z,21.42
2018-05-10T17:56:52.188Z,21.29
2018-05-10T17:59:18.411Z,21.17
2018-05-10T18:01:44.671Z,21.03
2018-05-10T18:04:10.898Z,20.97
2018-05-10T18:06:37.169Z,20.91
2018-05-10T18:09:03.442Z,20.98
2018-05-10T18:11:29.691Z,21.05
2018-05-10T18:13:56.049Z,21.05
2018-05-10T18:16:22.201Z,21.15
2018-05-10T18:18:48.467Z,21.07
2018-05-10T18:21:14.715Z,21.03
2018-05-10T18:23:40.995Z,21.00
2018-05-10T18:26:07.232Z,20.81
2018-05-10T18:28:33.491Z,20.77
2018-05-10T18:30:59.779Z,20.77
2018-05-10T18:33:26.054Z,20.78
2018-05-10T18:35:52.381Z,20.79
2018-05-10T18:38:18.603Z,20.77
2018-05-10T18:40:44.928Z,20.83
2018-05-10T18:43:11.105Z,20.84
2018-05-10T18:45:37.355Z,20.78
2018-05-10T18:48:03.615Z,20.76
2018-05-10T18:50:29.956Z,20.73
2018-05-10T18:52:56.190Z,20.83
2018-05-10T18:55:22.419Z,20.95
2018-05-10T18:57:48.688Z,20.94
2018-05-10T19:00:14.924Z,20.96
2018-05-10T19:02:41.235Z,20.81
2018-05-10T19:05:07.498Z,20.92
2018-05-10T19:07:33.766Z,20.93
2018-05-10T19:10:00.002Z,20.80
2018-05-10T19:12:26.266Z,20.74
2018-05-10T19:14:52.506Z,20.78
2018-05-10T19:17:18.734Z,20.73
2018-05-10T19:19:45.159Z,20.61
2018-05-10T19:22:11.402Z,20.48
2018-05-10T19:24:37.654Z,20.46
2018-05-10T19:27:03.888Z,20.48
2018-05-10T19:29:30.317Z,20.46
2018-05-10T19:31:56.612Z,20.36
2018-05-10T19:34:22.850Z,20.37
2018-05-10T19:36:49.098Z,20.18
2018-05-10T19:39:15.430Z,20.13
2018-05-10T19:41:41.684Z,20.12
2018-05-10T19:44:08.107Z,20.13
2018-05-10T19:46:34.382Z,20.14
2018-05-10T19:49:00.618Z,20.15
2018-05-10T19:51:27.027Z,20.19
2018-05-10T19:53:53.259Z,20.14
2018-05-10T19:56:19.564Z,20.19
2018-05-10T19:58:45.903Z,20.23
2018-05-10T20:01:12.139Z,20.27
2018-05-10T20:03:38.827Z,20.33
2018-05-10T20:06:05.215Z,20.31
2018-05-10T20:08:31.649Z,20.35
2018-05-10T20:10:57.938Z,20.39
2018-05-10T20:13:24.227Z,20.37
2018-05-10T20:15:50.889Z,20.35
2018-05-10T20:18:17.147Z,20.22
2018-05-10T20:20:43.476Z,20.16
2018-05-10T20:23:09.879Z,20.09
2018-05-10T20:25:36.122Z,20.12
2018-05-10T20:28:02.669Z,20.22
2018-05-10T20:30:28.966Z,20.16
2018-05-10T20:32:55.212Z,20.17
2018-05-10T20:35:21.638Z,20.13
2018-05-10T20:37:47.886Z,20.08
2018-05-10T20:40:14.352Z,20.01
2018-05-10T20:42:40.635Z,19.93
2018-05-10T20:45:06.862Z,20.01
2018-05-10T20:47:33.114Z,20.11
2018-05-10T20:49:59.546Z,20.13
2018-05-10T20:52:25.810Z,20.13
2018-05-10T20:54:52.328Z,20.16
2018-05-10T20:57:18.652Z,20.24
2018-05-10T20:59:44.903Z,20.29
2018-05-10T21:02:11.354Z,20.42
2018-05-10T21:04:37.611Z,20.48
2018-05-10T21:07:04.005Z,20.40
2018-05-10T21:09:30.290Z,20.41
2018-05-10T21:11:56.511Z,20.33
2018-05-10T21:14:23.024Z,20.29
2018-05-10T21:16:49.591Z,20.28
2018-05-10T21:19:15.846Z,20.26
2018-05-10T21:21:42.179Z,20.26
2018-05-10T21:24:08.484Z,20.27
2018-05-10T21:26:34.759Z,20.19
2018-05-10T21:29:01.240Z,20.17
2018-05-10T21:31:27.495Z,20.14
2018-05-10T21:33:53.816Z,20.04
2018-05-10T21:36:20.067Z,19.96
2018-05-10T21:38:46.329Z,19.93
2018-05-10T21:41:12.786Z,19.91
2018-05-10T21:43:39.047Z,19.81
2018-05-10T21:46:05.274Z,19.75
2018-05-10T21:48:31.690Z,19.67
2018-05-10T21:50:58.002Z,19.66
2018-05-10T21:53:24.260Z,19.53
2018-05-10T21:55:50.880Z,19.51
2018-05-10T21:58:17.126Z,19.50
2018-05-10T22:00:43.498Z,19.47
2018-05-10T22:03:09.895Z,19.47
2018-05-10T22:05:36.156Z,19.44
2018-05-10T22:08:02.705Z,19.39
2018-05-10T22:10:28.974Z,19.18
2018-05-10T22:12:55.234Z,19.19
2018-05-10T22:15:21.724Z,19.26
2018-05-10T22:17:47.968Z,19.29
2018-05-10T22:20:14.537Z,19.17
2018-05-10T22:22:40.863Z,19.00
2018-05-10T22:25:07.131Z,18.93
2018-05-10T22:27:33.606Z,18.86
2018-05-10T22:30:00.178Z,18.72
2018-05-10T22:32:26.830Z,18.61
2018-05-10T22:34:53.162Z,18.58
2018-05-10T22:37:19.450Z,18.70
2018-05-10T22:39:45.821Z,18.70
2018-05-10T22:42:12.143Z,18.76
2018-05-10T22:44:38.659Z,18.74
2018-05-10T22:47:04.899Z,18.75
2018-05-10T22:49:31.248Z,18.78
2018-05-10T22:51:57.737Z,18.79
2018-05-10T22:54:24.058Z,18.72
2018-05-10T22:56:50.568Z,18.75
2018-05-10T22:59:16.837Z,18.71
2018-05-10T23:01:43.151Z,18.77
2018-05-10T23:04:09.716Z,18.73
2018-05-10T23:06:36.039Z,18.59
2018-05-10T23:09:02.596Z,18.51
2018-05-10T23:11:28.919Z,18.53
2018-05-10T23:13:55.602Z,18.48
2018-05-10T23:16:22.082Z,18.51
2018-05-10T23:18:48.327Z,18.58
2018-05-10T23:21:14.973Z,18.57
2018-05-10T23:23:41.269Z,18.54
2018-05-10T23:26:07.607Z,18.44
2018-05-10T23:28:34.010Z,18.26
2018-05-10T23:31:00.227Z,18.17
2018-05-10T23:33:26.851Z,18.18
2018-05-10T23:35:53.098Z,18.13
2018-05-10T23:38:19.355Z,18.22
2018-05-10T23:40:45.843Z,18.32
2018-05-10T23:43:12.096Z,18.26
2018-05-10T23:45:38.592Z,18.16
2018-05-10T23:48:04.865Z,18.18
2018-05-10T23:50:31.114Z,18.09
2018-05-10T23:52:57.622Z,18.15
2018-05-10T23:55:23.874Z,17.86
2018-05-10T23:57:50.325Z,17.61
